Terminal Aerodrome Forecast
Issued by NWS

Home | Current Version | Previous Version | Text Only | Print | Product List | Glossary On
Versions: 1 2 3 4 5 6 7 8 9 10 11 12 13 14
000
FTUS41 KPBZ 030520
TAFBVI
TAF
KBVI 030520Z 0306/0406 00000KT P6SM FEW120 BKN250
     FM031000 00000KT 4SM BR FEW120
     FM031400 30003KT P6SM SCT040
      AMD NOT SKED=

USA.gov is the U.S. government's official web portal to all federal, state and local government web resources and services.